sensor_id;sensor_type;location;lat;lon;timestamp;temperature;humidity
72440;DHT22;60446;50.752;4.352;2023-01-13T00:01:33;8.70;77.50
72440;DHT22;60446;50.752;4.352;2023-01-13T00:04:08;8.70;76.30
72440;DHT22;60446;50.752;4.352;2023-01-13T00:06:41;8.70;76.50
72440;DHT22;60446;50.752;4.352;2023-01-13T00:09:25;8.70;77.20
72440;DHT22;60446;50.752;4.352;2023-01-13T00:12:02;8.70;76.10
72440;DHT22;60446;50.752;4.352;2023-01-13T00:15:09;8.60;75.70
72440;DHT22;60446;50.752;4.352;2023-01-13T00:17:40;8.50;76.40
72440;DHT22;60446;50.752;4.352;2023-01-13T00:20:18;8.50;75.70
72440;DHT22;60446;50.752;4.352;2023-01-13T00:22:52;8.40;76.50
72440;DHT22;60446;50.752;4.352;2023-01-13T00:25:31;8.40;76.30
72440;DHT22;60446;50.752;4.352;2023-01-13T00:28:01;8.40;74.90
72440;DHT22;60446;50.752;4.352;2023-01-13T00:30:39;8.40;74.70
72440;DHT22;60446;50.752;4.352;2023-01-13T00:33:26;8.30;75.30
72440;DHT22;60446;50.752;4.352;2023-01-13T00:35:59;8.30;75.10
72440;DHT22;60446;50.752;4.352;2023-01-13T00:38:38;8.20;76.00
72440;DHT22;60446;50.752;4.352;2023-01-13T00:41:19;8.20;74.70
72440;DHT22;60446;50.752;4.352;2023-01-13T00:44:00;8.20;74.80
72440;DHT22;60446;50.752;4.352;2023-01-13T00:46:30;8.20;74.60
72440;DHT22;60446;50.752;4.352;2023-01-13T00:49:25;8.10;73.50
72440;DHT22;60446;50.752;4.352;2023-01-13T00:52:04;8.10;74.10
72440;DHT22;60446;50.752;4.352;2023-01-13T00:54:33;8.00;74.70
72440;DHT22;60446;50.752;4.352;2023-01-13T00:57:10;7.90;74.60
72440;DHT22;60446;50.752;4.352;2023-01-13T01:00:00;7.90;75.30
72440;DHT22;60446;50.752;4.352;2023-01-13T01:02:34;7.80;74.90
72440;DHT22;60446;50.752;4.352;2023-01-13T01:05:16;7.70;74.90
72440;DHT22;60446;50.752;4.352;2023-01-13T01:07:49;7.70;74.10
72440;DHT22;60446;50.752;4.352;2023-01-13T01:10:25;7.70;75.60
72440;DHT22;60446;50.752;4.352;2023-01-13T01:12:57;7.70;74.80
72440;DHT22;60446;50.752;4.352;2023-01-13T01:15:47;7.60;74.80
72440;DHT22;60446;50.752;4.352;2023-01-13T01:18:19;7.50;74.80
72440;DHT22;60446;50.752;4.352;2023-01-13T01:20:52;7.50;74.00
72440;DHT22;60446;50.752;4.352;2023-01-13T01:23:34;7.50;74.30
72440;DHT22;60446;50.752;4.352;2023-01-13T01:26:21;7.50;74.70
72440;DHT22;60446;50.752;4.352;2023-01-13T01:28:57;7.40;74.90
72440;DHT22;60446;50.752;4.352;2023-01-13T01:31:37;7.30;74.70
72440;DHT22;60446;50.752;4.352;2023-01-13T01:34:12;7.30;75.20
72440;DHT22;60446;50.752;4.352;2023-01-13T01:36:40;7.30;74.50
72440;DHT22;60446;50.752;4.352;2023-01-13T01:39:10;7.30;75.00
72440;DHT22;60446;50.752;4.352;2023-01-13T01:42:04;7.30;75.40
72440;DHT22;60446;50.752;4.352;2023-01-13T01:45:23;7.30;74.50
72440;DHT22;60446;50.752;4.352;2023-01-13T01:48:03;7.30;74.80
72440;DHT22;60446;50.752;4.352;2023-01-13T01:50:36;7.20;74.40
72440;DHT22;60446;50.752;4.352;2023-01-13T01:53:16;7.20;74.70
72440;DHT22;60446;50.752;4.352;2023-01-13T01:55:59;7.20;74.70
72440;DHT22;60446;50.752;4.352;2023-01-13T01:58:36;7.20;75.00
72440;DHT22;60446;50.752;4.352;2023-01-13T02:01:08;7.20;74.80
72440;DHT22;60446;50.752;4.352;2023-01-13T02:03:46;7.10;75.40
72440;DHT22;60446;50.752;4.352;2023-01-13T02:06:29;7.10;75.70
72440;DHT22;60446;50.752;4.352;2023-01-13T02:09:18;7.10;75.40
72440;DHT22;60446;50.752;4.352;2023-01-13T02:12:00;7.10;75.00
72440;DHT22;60446;50.752;4.352;2023-01-13T02:14:46;7.10;75.50
72440;DHT22;60446;50.752;4.352;2023-01-13T02:17:48;7.10;75.50
72440;DHT22;60446;50.752;4.352;2023-01-13T02:29:59;7.00;75.90
72440;DHT22;60446;50.752;4.352;2023-01-13T02:36:42;7.00;75.20
72440;DHT22;60446;50.752;4.352;2023-01-13T02:39:32;7.00;75.40
72440;DHT22;60446;50.752;4.352;2023-01-13T02:42:24;7.00;75.60
72440;DHT22;60446;50.752;4.352;2023-01-13T02:47:56;7.30;74.60
72440;DHT22;60446;50.752;4.352;2023-01-13T02:50:54;7.40;74.40
72440;DHT22;60446;50.752;4.352;2023-01-13T02:53:35;7.40;73.60
72440;DHT22;60446;50.752;4.352;2023-01-13T02:56:07;7.50;74.20
72440;DHT22;60446;50.752;4.352;2023-01-13T02:58:38;7.50;74.50
72440;DHT22;60446;50.752;4.352;2023-01-13T03:01:09;7.50;73.60
72440;DHT22;60446;50.752;4.352;2023-01-13T03:03:46;7.60;74.40
72440;DHT22;60446;50.752;4.352;2023-01-13T03:06:57;7.60;74.10
72440;DHT22;60446;50.752;4.352;2023-01-13T03:10:00;7.60;73.70
72440;DHT22;60446;50.752;4.352;2023-01-13T03:16:39;7.60;73.90
72440;DHT22;60446;50.752;4.352;2023-01-13T03:24:50;7.70;73.90
72440;DHT22;60446;50.752;4.352;2023-01-13T03:27:31;7.70;73.60
72440;DHT22;60446;50.752;4.352;2023-01-13T03:30:47;7.70;73.70
72440;DHT22;60446;50.752;4.352;2023-01-13T03:33:25;7.80;73.80
72440;DHT22;60446;50.752;4.352;2023-01-13T03:36:00;7.70;73.30
72440;DHT22;60446;50.752;4.352;2023-01-13T03:38:45;7.70;73.00
72440;DHT22;60446;50.752;4.352;2023-01-13T03:41:37;7.70;73.20
72440;DHT22;60446;50.752;4.352;2023-01-13T03:44:33;7.70;73.10
72440;DHT22;60446;50.752;4.352;2023-01-13T03:47:26;7.60;72.80
72440;DHT22;60446;50.752;4.352;2023-01-13T03:53:24;7.50;72.80
72440;DHT22;60446;50.752;4.352;2023-01-13T03:56:21;7.40;72.90
72440;DHT22;60446;50.752;4.352;2023-01-13T03:58:59;7.40;72.70
72440;DHT22;60446;50.752;4.352;2023-01-13T04:02:00;7.40;72.60
72440;DHT22;60446;50.752;4.352;2023-01-13T04:04:58;7.40;71.70
72440;DHT22;60446;50.752;4.352;2023-01-13T04:11:00;7.50;72.10
72440;DHT22;60446;50.752;4.352;2023-01-13T04:13:47;7.60;72.10
72440;DHT22;60446;50.752;4.352;2023-01-13T04:16:28;7.60;71.60
72440;DHT22;60446;50.752;4.352;2023-01-13T04:19:24;7.60;72.30
72440;DHT22;60446;50.752;4.352;2023-01-13T04:22:16;7.60;72.10
72440;DHT22;60446;50.752;4.352;2023-01-13T04:24:48;7.60;72.40
72440;DHT22;60446;50.752;4.352;2023-01-13T04:27:33;7.50;73.10
72440;DHT22;60446;50.752;4.352;2023-01-13T04:30:16;7.60;73.00
72440;DHT22;60446;50.752;4.352;2023-01-13T04:32:58;7.60;72.80
72440;DHT22;60446;50.752;4.352;2023-01-13T04:35:37;7.70;73.10
72440;DHT22;60446;50.752;4.352;2023-01-13T04:38:12;7.70;73.50
72440;DHT22;60446;50.752;4.352;2023-01-13T04:40:45;7.70;74.10
72440;DHT22;60446;50.752;4.352;2023-01-13T04:43:26;7.60;74.40
72440;DHT22;60446;50.752;4.352;2023-01-13T04:45:56;7.60;73.80
72440;DHT22;60446;50.752;4.352;2023-01-13T04:48:23;7.60;73.70
72440;DHT22;60446;50.752;4.352;2023-01-13T04:51:13;7.50;73.90
72440;DHT22;60446;50.752;4.352;2023-01-13T04:53:42;7.40;73.80
72440;DHT22;60446;50.752;4.352;2023-01-13T04:56:17;7.40;74.20
72440;DHT22;60446;50.752;4.352;2023-01-13T04:58:47;7.30;73.80
72440;DHT22;60446;50.752;4.352;2023-01-13T05:01:15;7.20;73.30
72440;DHT22;60446;50.752;4.352;2023-01-13T05:03:52;7.10;74.00
72440;DHT22;60446;50.752;4.352;2023-01-13T05:06:25;7.10;74.30
72440;DHT22;60446;50.752;4.352;2023-01-13T05:08:58;7.00;74.30
72440;DHT22;60446;50.752;4.352;2023-01-13T05:11:30;6.90;75.00
72440;DHT22;60446;50.752;4.352;2023-01-13T05:14:29;6.90;75.10
72440;DHT22;60446;50.752;4.352;2023-01-13T05:17:22;6.80;75.40
72440;DHT22;60446;50.752;4.352;2023-01-13T05:19:51;6.70;75.40
72440;DHT22;60446;50.752;4.352;2023-01-13T05:22:20;6.70;75.80
72440;DHT22;60446;50.752;4.352;2023-01-13T05:25:10;6.70;75.70
72440;DHT22;60446;50.752;4.352;2023-01-13T05:27:53;6.60;75.90
72440;DHT22;60446;50.752;4.352;2023-01-13T05:30:24;6.70;75.50
72440;DHT22;60446;50.752;4.352;2023-01-13T05:32:53;6.60;75.80
72440;DHT22;60446;50.752;4.352;2023-01-13T05:35:20;6.60;75.80
72440;DHT22;60446;50.752;4.352;2023-01-13T05:37:53;6.60;76.00
72440;DHT22;60446;50.752;4.352;2023-01-13T05:40:21;6.60;75.90
72440;DHT22;60446;50.752;4.352;2023-01-13T05:43:18;6.60;76.00
72440;DHT22;60446;50.752;4.352;2023-01-13T05:46:07;6.50;76.30
72440;DHT22;60446;50.752;4.352;2023-01-13T05:48:37;6.50;76.20
72440;DHT22;60446;50.752;4.352;2023-01-13T05:51:08;6.50;76.10
72440;DHT22;60446;50.752;4.352;2023-01-13T05:53:36;6.50;76.60
72440;DHT22;60446;50.752;4.352;2023-01-13T05:56:07;6.50;76.80
72440;DHT22;60446;50.752;4.352;2023-01-13T05:58:43;6.50;77.20
72440;DHT22;60446;50.752;4.352;2023-01-13T06:01:14;6.60;77.30
72440;DHT22;60446;50.752;4.352;2023-01-13T06:04:07;6.70;77.40
72440;DHT22;60446;50.752;4.352;2023-01-13T06:06:48;6.80;76.90
72440;DHT22;60446;50.752;4.352;2023-01-13T06:09:18;6.70;77.10
72440;DHT22;60446;50.752;4.352;2023-01-13T06:11:51;6.70;77.20
72440;DHT22;60446;50.752;4.352;2023-01-13T06:14:56;6.70;77.40
72440;DHT22;60446;50.752;4.352;2023-01-13T06:17:26;6.60;77.70
72440;DHT22;60446;50.752;4.352;2023-01-13T06:20:07;6.50;77.70
72440;DHT22;60446;50.752;4.352;2023-01-13T06:22:43;6.50;77.70
72440;DHT22;60446;50.752;4.352;2023-01-13T06:28:06;6.40;78.30
72440;DHT22;60446;50.752;4.352;2023-01-13T06:30:46;6.40;78.10
72440;DHT22;60446;50.752;4.352;2023-01-13T06:33:31;6.40;78.00
72440;DHT22;60446;50.752;4.352;2023-01-13T06:36:07;6.30;78.00
72440;DHT22;60446;50.752;4.352;2023-01-13T06:38:47;6.30;78.10
72440;DHT22;60446;50.752;4.352;2023-01-13T06:41:25;6.30;78.00
72440;DHT22;60446;50.752;4.352;2023-01-13T06:44:12;6.30;77.90
72440;DHT22;60446;50.752;4.352;2023-01-13T06:46:39;6.40;77.20
72440;DHT22;60446;50.752;4.352;2023-01-13T06:49:14;6.40;77.20
72440;DHT22;60446;50.752;4.352;2023-01-13T06:51:47;6.40;76.80
72440;DHT22;60446;50.752;4.352;2023-01-13T06:54:17;6.30;76.70
72440;DHT22;60446;50.752;4.352;2023-01-13T06:56:46;6.40;76.70
72440;DHT22;60446;50.752;4.352;2023-01-13T06:59:18;6.40;76.60
72440;DHT22;60446;50.752;4.352;2023-01-13T07:02:10;6.40;76.50
72440;DHT22;60446;50.752;4.352;2023-01-13T07:05:00;6.40;76.30
72440;DHT22;60446;50.752;4.352;2023-01-13T07:07:37;6.30;76.60
72440;DHT22;60446;50.752;4.352;2023-01-13T07:10:19;6.30;77.00
72440;DHT22;60446;50.752;4.352;2023-01-13T07:12:51;6.30;77.00
72440;DHT22;60446;50.752;4.352;2023-01-13T07:15:39;6.30;77.00
72440;DHT22;60446;50.752;4.352;2023-01-13T07:18:06;6.30;77.30
72440;DHT22;60446;50.752;4.352;2023-01-13T07:20:33;6.30;77.10
72440;DHT22;60446;50.752;4.352;2023-01-13T07:23:01;6.30;77.30
72440;DHT22;60446;50.752;4.352;2023-01-13T07:25:30;6.30;77.30
72440;DHT22;60446;50.752;4.352;2023-01-13T07:27:59;6.20;77.50
72440;DHT22;60446;50.752;4.352;2023-01-13T07:30:26;6.20;77.40
72440;DHT22;60446;50.752;4.352;2023-01-13T07:32:55;6.20;77.60
72440;DHT22;60446;50.752;4.352;2023-01-13T07:35:23;6.20;77.80
72440;DHT22;60446;50.752;4.352;2023-01-13T07:37:52;6.20;77.90
72440;DHT22;60446;50.752;4.352;2023-01-13T07:40:20;6.10;77.90
72440;DHT22;60446;50.752;4.352;2023-01-13T07:42:55;6.10;77.90
72440;DHT22;60446;50.752;4.352;2023-01-13T07:45:41;6.20;77.30
72440;DHT22;60446;50.752;4.352;2023-01-13T07:48:11;6.30;77.10
72440;DHT22;60446;50.752;4.352;2023-01-13T07:50:41;6.30;77.20
72440;DHT22;60446;50.752;4.352;2023-01-13T07:53:12;6.30;77.10
72440;DHT22;60446;50.752;4.352;2023-01-13T07:55:48;6.30;77.30
72440;DHT22;60446;50.752;4.352;2023-01-13T07:58:16;6.30;77.30
72440;DHT22;60446;50.752;4.352;2023-01-13T08:00:43;6.30;77.10
72440;DHT22;60446;50.752;4.352;2023-01-13T08:03:32;6.30;77.20
72440;DHT22;60446;50.752;4.352;2023-01-13T08:06:06;6.20;77.40
72440;DHT22;60446;50.752;4.352;2023-01-13T08:08:39;6.30;77.30
72440;DHT22;60446;50.752;4.352;2023-01-13T08:11:18;6.30;77.20
72440;DHT22;60446;50.752;4.352;2023-01-13T08:14:01;6.40;76.80
72440;DHT22;60446;50.752;4.352;2023-01-13T08:16:49;6.40;77.20
72440;DHT22;60446;50.752;4.352;2023-01-13T08:19:38;6.50;76.50
72440;DHT22;60446;50.752;4.352;2023-01-13T08:22:12;6.60;76.60
72440;DHT22;60446;50.752;4.352;2023-01-13T08:24:58;6.60;76.10
72440;DHT22;60446;50.752;4.352;2023-01-13T08:27:48;6.60;76.40
72440;DHT22;60446;50.752;4.352;2023-01-13T08:30:45;6.50;76.30
72440;DHT22;60446;50.752;4.352;2023-01-13T08:33:42;6.50;76.50
72440;DHT22;60446;50.752;4.352;2023-01-13T08:36:15;6.50;76.10
72440;DHT22;60446;50.752;4.352;2023-01-13T08:38:48;6.50;76.30
72440;DHT22;60446;50.752;4.352;2023-01-13T08:41:38;6.50;76.70
72440;DHT22;60446;50.752;4.352;2023-01-13T08:44:29;6.60;75.90
72440;DHT22;60446;50.752;4.352;2023-01-13T08:47:00;6.80;75.30
72440;DHT22;60446;50.752;4.352;2023-01-13T08:50:00;6.90;75.10
72440;DHT22;60446;50.752;4.352;2023-01-13T08:52:53;7.00;74.90
72440;DHT22;60446;50.752;4.352;2023-01-13T08:55:28;7.10;75.20
72440;DHT22;60446;50.752;4.352;2023-01-13T08:58:24;7.20;74.30
72440;DHT22;60446;50.752;4.352;2023-01-13T09:01:07;7.20;74.50
72440;DHT22;60446;50.752;4.352;2023-01-13T09:04:33;7.30;74.10
72440;DHT22;60446;50.752;4.352;2023-01-13T09:07:26;7.40;73.70
72440;DHT22;60446;50.752;4.352;2023-01-13T09:10:11;7.30;73.90
72440;DHT22;60446;50.752;4.352;2023-01-13T09:12:55;7.30;73.50
72440;DHT22;60446;50.752;4.352;2023-01-13T09:15:57;7.40;73.10
72440;DHT22;60446;50.752;4.352;2023-01-13T09:25:57;7.30;73.20
72440;DHT22;60446;50.752;4.352;2023-01-13T09:29:05;7.40;72.80
72440;DHT22;60446;50.752;4.352;2023-01-13T09:32:27;7.40;72.50
72440;DHT22;60446;50.752;4.352;2023-01-13T09:35:48;7.40;72.40
72440;DHT22;60446;50.752;4.352;2023-01-13T09:38:43;7.40;72.20
72440;DHT22;60446;50.752;4.352;2023-01-13T09:42:13;7.40;72.60
72440;DHT22;60446;50.752;4.352;2023-01-13T09:48:45;7.50;72.10
72440;DHT22;60446;50.752;4.352;2023-01-13T09:51:37;7.80;72.30
72440;DHT22;60446;50.752;4.352;2023-01-13T09:54:29;8.00;71.40
72440;DHT22;60446;50.752;4.352;2023-01-13T09:57:42;8.10;71.30
72440;DHT22;60446;50.752;4.352;2023-01-13T10:04:20;8.20;70.80
72440;DHT22;60446;50.752;4.352;2023-01-13T10:08:36;8.20;70.70
72440;DHT22;60446;50.752;4.352;2023-01-13T10:12:39;8.20;70.50
72440;DHT22;60446;50.752;4.352;2023-01-13T10:16:23;8.20;71.20
72440;DHT22;60446;50.752;4.352;2023-01-13T10:23:59;8.10;71.40
72440;DHT22;60446;50.752;4.352;2023-01-13T10:27:40;8.00;71.70
72440;DHT22;60446;50.752;4.352;2023-01-13T10:31:12;7.90;71.90
72440;DHT22;60446;50.752;4.352;2023-01-13T10:34:18;8.00;71.70
72440;DHT22;60446;50.752;4.352;2023-01-13T10:37:04;8.30;71.10
72440;DHT22;60446;50.752;4.352;2023-01-13T10:39:59;8.40;71.30
72440;DHT22;60446;50.752;4.352;2023-01-13T10:46:27;8.50;71.10
72440;DHT22;60446;50.752;4.352;2023-01-13T10:49:36;8.50;70.00
72440;DHT22;60446;50.752;4.352;2023-01-13T10:52:29;8.50;70.80
72440;DHT22;60446;50.752;4.352;2023-01-13T10:55:29;8.40;70.50
72440;DHT22;60446;50.752;4.352;2023-01-13T10:58:24;8.40;71.10
72440;DHT22;60446;50.752;4.352;2023-01-13T11:01:25;8.30;71.20
72440;DHT22;60446;50.752;4.352;2023-01-13T11:08:03;8.30;70.60
72440;DHT22;60446;50.752;4.352;2023-01-13T11:11:00;8.30;71.50
72440;DHT22;60446;50.752;4.352;2023-01-13T11:13:48;8.20;74.20
72440;DHT22;60446;50.752;4.352;2023-01-13T11:16:51;8.10;74.40
72440;DHT22;60446;50.752;4.352;2023-01-13T11:19:43;8.00;76.00
72440;DHT22;60446;50.752;4.352;2023-01-13T11:22:53;8.00;75.40
72440;DHT22;60446;50.752;4.352;2023-01-13T11:25:50;8.00;75.10
72440;DHT22;60446;50.752;4.352;2023-01-13T11:29:05;8.10;76.50
72440;DHT22;60446;50.752;4.352;2023-01-13T11:31:52;8.00;75.80
72440;DHT22;60446;50.752;4.352;2023-01-13T11:36:49;8.10;75.50
72440;DHT22;60446;50.752;4.352;2023-01-13T11:44:14;8.20;74.80
72440;DHT22;60446;50.752;4.352;2023-01-13T11:46:52;8.30;76.00
72440;DHT22;60446;50.752;4.352;2023-01-13T11:49:56;8.30;73.70
72440;DHT22;60446;50.752;4.352;2023-01-13T11:53:09;8.30;75.00
72440;DHT22;60446;50.752;4.352;2023-01-13T12:06:37;8.40;73.10
72440;DHT22;60446;50.752;4.352;2023-01-13T12:16:30;8.30;72.20
72440;DHT22;60446;50.752;4.352;2023-01-13T12:22:53;8.30;74.10
72440;DHT22;60446;50.752;4.352;2023-01-13T12:26:00;8.40;74.90
72440;DHT22;60446;50.752;4.352;2023-01-13T12:29:37;8.40;75.30
72440;DHT22;60446;50.752;4.352;2023-01-13T12:32:53;8.30;74.10
72440;DHT22;60446;50.752;4.352;2023-01-13T12:39:29;8.30;72.80
72440;DHT22;60446;50.752;4.352;2023-01-13T12:42:42;8.50;71.00
72440;DHT22;60446;50.752;4.352;2023-01-13T12:45:42;8.50;70.60
72440;DHT22;60446;50.752;4.352;2023-01-13T12:52:16;8.70;67.40
72440;DHT22;60446;50.752;4.352;2023-01-13T12:55:33;8.70;68.40
72440;DHT22;60446;50.752;4.352;2023-01-13T12:58:35;8.70;67.20
72440;DHT22;60446;50.752;4.352;2023-01-13T13:04:44;8.80;66.90
72440;DHT22;60446;50.752;4.352;2023-01-13T13:07:39;8.80;66.00
72440;DHT22;60446;50.752;4.352;2023-01-13T13:14:18;8.90;65.70
72440;DHT22;60446;50.752;4.352;2023-01-13T13:17:38;8.90;67.60
72440;DHT22;60446;50.752;4.352;2023-01-13T13:21:15;8.90;65.30
72440;DHT22;60446;50.752;4.352;2023-01-13T13:24:02;8.90;66.90
72440;DHT22;60446;50.752;4.352;2023-01-13T13:26:48;8.90;66.80
72440;DHT22;60446;50.752;4.352;2023-01-13T13:31:09;8.90;65.00
72440;DHT22;60446;50.752;4.352;2023-01-13T13:46:01;8.90;65.80
72440;DHT22;60446;50.752;4.352;2023-01-13T13:48:58;9.00;66.00
72440;DHT22;60446;50.752;4.352;2023-01-13T13:52:30;8.90;67.00
72440;DHT22;60446;50.752;4.352;2023-01-13T13:55:36;9.00;65.50
72440;DHT22;60446;50.752;4.352;2023-01-13T13:58:48;9.10;66.00
72440;DHT22;60446;50.752;4.352;2023-01-13T14:05:56;9.30;65.80
72440;DHT22;60446;50.752;4.352;2023-01-13T14:09:53;9.40;64.70
72440;DHT22;60446;50.752;4.352;2023-01-13T14:38:04;9.20;63.60
72440;DHT22;60446;50.752;4.352;2023-01-13T14:41:46;9.10;63.70
72440;DHT22;60446;50.752;4.352;2023-01-13T14:45:31;9.10;63.40
72440;DHT22;60446;50.752;4.352;2023-01-13T15:13:55;9.00;64.20
72440;DHT22;60446;50.752;4.352;2023-01-13T15:16:44;8.90;64.10
72440;DHT22;60446;50.752;4.352;2023-01-13T15:19:41;8.90;65.80
72440;DHT22;60446;50.752;4.352;2023-01-13T15:25:54;8.90;64.60
72440;DHT22;60446;50.752;4.352;2023-01-13T15:28:50;8.80;64.20
72440;DHT22;60446;50.752;4.352;2023-01-13T15:31:20;8.80;64.30
72440;DHT22;60446;50.752;4.352;2023-01-13T15:33:56;8.70;64.80
72440;DHT22;60446;50.752;4.352;2023-01-13T15:36:28;8.70;66.10
72440;DHT22;60446;50.752;4.352;2023-01-13T15:39:19;8.60;65.50
72440;DHT22;60446;50.752;4.352;2023-01-13T15:42:07;8.60;65.30
72440;DHT22;60446;50.752;4.352;2023-01-13T15:45:01;8.60;65.50
72440;DHT22;60446;50.752;4.352;2023-01-13T15:48:01;8.60;65.90
72440;DHT22;60446;50.752;4.352;2023-01-13T15:50:33;8.60;65.10
72440;DHT22;60446;50.752;4.352;2023-01-13T15:53:06;8.60;65.90
72440;DHT22;60446;50.752;4.352;2023-01-13T15:55:45;8.60;65.70
72440;DHT22;60446;50.752;4.352;2023-01-13T15:58:26;8.60;66.10
72440;DHT22;60446;50.752;4.352;2023-01-13T16:01:01;8.60;65.70
72440;DHT22;60446;50.752;4.352;2023-01-13T16:03:41;8.60;66.20
72440;DHT22;60446;50.752;4.352;2023-01-13T16:06:17;8.50;66.40
72440;DHT22;60446;50.752;4.352;2023-01-13T16:08:48;8.50;66.70
72440;DHT22;60446;50.752;4.352;2023-01-13T16:11:59;8.50;67.50
72440;DHT22;60446;50.752;4.352;2023-01-13T16:14:44;8.40;67.90
72440;DHT22;60446;50.752;4.352;2023-01-13T16:17:38;8.20;68.00
72440;DHT22;60446;50.752;4.352;2023-01-13T16:20:32;8.10;68.50
72440;DHT22;60446;50.752;4.352;2023-01-13T16:23:02;8.00;68.80
72440;DHT22;60446;50.752;4.352;2023-01-13T16:25:42;7.90;68.90
72440;DHT22;60446;50.752;4.352;2023-01-13T16:28:37;7.90;68.80
72440;DHT22;60446;50.752;4.352;2023-01-13T16:31:28;7.90;68.80
72440;DHT22;60446;50.752;4.352;2023-01-13T16:34:24;7.80;69.70
72440;DHT22;60446;50.752;4.352;2023-01-13T16:37:21;7.70;69.70
72440;DHT22;60446;50.752;4.352;2023-01-13T16:43:22;7.70;69.80
72440;DHT22;60446;50.752;4.352;2023-01-13T16:46:37;7.60;69.90
72440;DHT22;60446;50.752;4.352;2023-01-13T16:49:24;7.50;70.30
72440;DHT22;60446;50.752;4.352;2023-01-13T16:51:57;7.50;70.30
72440;DHT22;60446;50.752;4.352;2023-01-13T16:54:39;7.40;70.50
72440;DHT22;60446;50.752;4.352;2023-01-13T16:57:48;7.40;70.70
72440;DHT22;60446;50.752;4.352;2023-01-13T17:00:58;7.30;71.60
72440;DHT22;60446;50.752;4.352;2023-01-13T17:04:02;7.10;71.90
72440;DHT22;60446;50.752;4.352;2023-01-13T17:07:15;7.10;72.00
72440;DHT22;60446;50.752;4.352;2023-01-13T17:10:26;7.10;72.30
72440;DHT22;60446;50.752;4.352;2023-01-13T17:13:14;7.10;72.50
72440;DHT22;60446;50.752;4.352;2023-01-13T17:16:19;7.10;72.70
72440;DHT22;60446;50.752;4.352;2023-01-13T17:19:22;7.00;72.80
72440;DHT22;60446;50.752;4.352;2023-01-13T17:21:58;7.00;73.30
72440;DHT22;60446;50.752;4.352;2023-01-13T17:24:31;7.00;73.20
72440;DHT22;60446;50.752;4.352;2023-01-13T17:27:42;7.00;73.50
72440;DHT22;60446;50.752;4.352;2023-01-13T17:30:23;7.00;73.60
72440;DHT22;60446;50.752;4.352;2023-01-13T17:33:08;7.00;73.80
72440;DHT22;60446;50.752;4.352;2023-01-13T17:35:40;7.10;73.60
72440;DHT22;60446;50.752;4.352;2023-01-13T17:38:14;7.10;73.70
72440;DHT22;60446;50.752;4.352;2023-01-13T17:40:43;7.20;73.20
72440;DHT22;60446;50.752;4.352;2023-01-13T17:43:32;7.30;73.10
72440;DHT22;60446;50.752;4.352;2023-01-13T17:46:57;7.30;72.40
72440;DHT22;60446;50.752;4.352;2023-01-13T17:49:31;7.40;72.70
72440;DHT22;60446;50.752;4.352;2023-01-13T17:52:04;7.40;72.80
72440;DHT22;60446;50.752;4.352;2023-01-13T17:54:43;7.40;73.10
72440;DHT22;60446;50.752;4.352;2023-01-13T17:57:27;7.40;72.70
72440;DHT22;60446;50.752;4.352;2023-01-13T18:00:26;7.40;72.60
72440;DHT22;60446;50.752;4.352;2023-01-13T18:03:11;7.40;72.80
72440;DHT22;60446;50.752;4.352;2023-01-13T18:06:25;7.40;72.60
72440;DHT22;60446;50.752;4.352;2023-01-13T18:09:15;7.30;73.30
72440;DHT22;60446;50.752;4.352;2023-01-13T18:12:01;7.30;72.90
72440;DHT22;60446;50.752;4.352;2023-01-13T18:14:46;7.30;73.00
72440;DHT22;60446;50.752;4.352;2023-01-13T18:17:34;7.20;73.20
72440;DHT22;60446;50.752;4.352;2023-01-13T18:20:23;7.10;73.70
72440;DHT22;60446;50.752;4.352;2023-01-13T18:23:16;7.10;73.30
72440;DHT22;60446;50.752;4.352;2023-01-13T18:26:24;7.10;73.80
72440;DHT22;60446;50.752;4.352;2023-01-13T18:29:22;7.10;73.40
72440;DHT22;60446;50.752;4.352;2023-01-13T18:32:04;7.10;73.40
72440;DHT22;60446;50.752;4.352;2023-01-13T18:34:39;7.20;73.40
72440;DHT22;60446;50.752;4.352;2023-01-13T18:38:12;7.20;73.40
72440;DHT22;60446;50.752;4.352;2023-01-13T18:41:17;7.20;73.40
72440;DHT22;60446;50.752;4.352;2023-01-13T18:48:15;7.20;73.20
72440;DHT22;60446;50.752;4.352;2023-01-13T18:50:43;7.20;73.50
72440;DHT22;60446;50.752;4.352;2023-01-13T18:53:10;7.20;73.10
72440;DHT22;60446;50.752;4.352;2023-01-13T18:55:37;7.20;73.10
72440;DHT22;60446;50.752;4.352;2023-01-13T18:58:04;7.20;73.40
72440;DHT22;60446;50.752;4.352;2023-01-13T19:00:36;7.10;73.50
72440;DHT22;60446;50.752;4.352;2023-01-13T19:03:04;7.10;73.70
72440;DHT22;60446;50.752;4.352;2023-01-13T19:05:33;7.10;73.70
72440;DHT22;60446;50.752;4.352;2023-01-13T19:08:02;7.00;73.80
72440;DHT22;60446;50.752;4.352;2023-01-13T19:10:30;7.00;74.40
72440;DHT22;60446;50.752;4.352;2023-01-13T19:12:58;7.00;73.90
72440;DHT22;60446;50.752;4.352;2023-01-13T19:15:27;7.00;74.50
72440;DHT22;60446;50.752;4.352;2023-01-13T19:17:54;6.90;74.30
72440;DHT22;60446;50.752;4.352;2023-01-13T19:20:21;7.00;74.40
72440;DHT22;60446;50.752;4.352;2023-01-13T19:22:51;6.90;74.70
72440;DHT22;60446;50.752;4.352;2023-01-13T19:25:20;7.00;74.70
72440;DHT22;60446;50.752;4.352;2023-01-13T19:27:47;7.00;74.80
72440;DHT22;60446;50.752;4.352;2023-01-13T19:30:16;7.00;74.80
72440;DHT22;60446;50.752;4.352;2023-01-13T19:32:46;7.10;74.80
72440;DHT22;60446;50.752;4.352;2023-01-13T19:35:13;7.20;74.50
72440;DHT22;60446;50.752;4.352;2023-01-13T19:37:43;7.20;74.10
72440;DHT22;60446;50.752;4.352;2023-01-13T19:40:13;7.20;74.00
72440;DHT22;60446;50.752;4.352;2023-01-13T19:42:44;7.30;74.20
72440;DHT22;60446;50.752;4.352;2023-01-13T19:45:32;7.30;74.30
72440;DHT22;60446;50.752;4.352;2023-01-13T19:48:04;7.30;74.20
72440;DHT22;60446;50.752;4.352;2023-01-13T19:50:37;7.30;74.00
72440;DHT22;60446;50.752;4.352;2023-01-13T19:53:06;7.30;73.90
72440;DHT22;60446;50.752;4.352;2023-01-13T19:55:34;7.30;74.20
72440;DHT22;60446;50.752;4.352;2023-01-13T19:58:06;7.30;74.20
72440;DHT22;60446;50.752;4.352;2023-01-13T20:00:37;7.30;73.90
72440;DHT22;60446;50.752;4.352;2023-01-13T20:03:13;7.30;73.90
72440;DHT22;60446;50.752;4.352;2023-01-13T20:05:41;7.30;73.90
72440;DHT22;60446;50.752;4.352;2023-01-13T20:08:09;7.30;73.90
72440;DHT22;60446;50.752;4.352;2023-01-13T20:10:37;7.30;74.00
72440;DHT22;60446;50.752;4.352;2023-01-13T20:13:07;7.20;74.20
72440;DHT22;60446;50.752;4.352;2023-01-13T20:15:35;7.20;74.00
72440;DHT22;60446;50.752;4.352;2023-01-13T20:18:06;7.20;74.20
72440;DHT22;60446;50.752;4.352;2023-01-13T20:20:35;7.10;74.40
72440;DHT22;60446;50.752;4.352;2023-01-13T20:23:07;7.00;74.70
72440;DHT22;60446;50.752;4.352;2023-01-13T20:25:35;7.00;74.50
72440;DHT22;60446;50.752;4.352;2023-01-13T20:28:02;6.90;74.80
72440;DHT22;60446;50.752;4.352;2023-01-13T20:30:30;6.90;75.10
72440;DHT22;60446;50.752;4.352;2023-01-13T20:32:57;6.90;75.20
72440;DHT22;60446;50.752;4.352;2023-01-13T20:35:24;6.90;74.80
72440;DHT22;60446;50.752;4.352;2023-01-13T20:37:55;6.90;75.10
72440;DHT22;60446;50.752;4.352;2023-01-13T20:40:22;6.90;74.90
72440;DHT22;60446;50.752;4.352;2023-01-13T20:42:49;6.80;75.00
72440;DHT22;60446;50.752;4.352;2023-01-13T20:45:17;6.80;75.10